Time;durP1;ratioP1;P1;durP2;ratioP2;P2;SDS_P1;SDS_P2;PMS_P1;PMS_P2;Temp;Humidity;BMP_temperature;BMP_pressure;BME280_temperature;BME280_humidity;BME280_pressure;Samples;Min_cycle;Max_cycle;Signal;HPM_P1;HPM_P2
2023/09/21 00:01:23;;;;;;;2.05;1.70;;;18.20;99.90;;;;;;5071110;28;20119;-55
2023/09/21 00:03:49;;;;;;;2.33;1.60;;;18.10;99.90;;;;;;5072725;28;20123;-55
2023/09/21 00:06:17;;;;;;;3.92;1.92;;;18.20;99.90;;;;;;5072838;28;20119;-54
2023/09/21 00:08:45;;;;;;;5.60;2.08;;;18.10;99.90;;;;;;5072919;28;20041;-55
2023/09/21 00:11:11;;;;;;;6.20;1.75;;;18.20;99.90;;;;;;5072603;28;20076;-54
2023/09/21 00:13:39;;;;;;;6.63;1.70;;;18.20;99.90;;;;;;5072464;28;20452;-55
2023/09/21 00:16:10;;;;;;;6.95;2.20;;;18.10;99.90;;;;;;5072806;28;20041;-54
2023/09/21 00:18:35;;;;;;;4.75;1.80;;;18.20;99.90;;;;;;5072730;28;20097;-53
2023/09/21 00:21:06;;;;;;;3.33;1.83;;;18.20;99.90;;;;;;5072565;28;20466;-55
2023/09/21 00:23:31;;;;;;;3.58;1.60;;;18.20;99.90;;;;;;5072511;28;20398;-55
2023/09/21 00:25:58;;;;;;;3.90;1.90;;;18.20;99.90;;;;;;5072414;28;20037;-55
2023/09/21 00:28:30;;;;;;;6.95;2.28;;;18.20;99.90;;;;;;5072787;28;20035;-53
2023/09/21 00:31:02;;;;;;;5.75;1.98;;;18.20;99.90;;;;;;5072565;28;20364;-54
2023/09/21 00:33:29;;;;;;;3.40;1.75;;;18.20;99.90;;;;;;5072263;28;20032;-54
2023/09/21 00:35:58;;;;;;;3.17;1.65;;;18.20;99.90;;;;;;5072376;28;20048;-54
2023/09/21 00:38:24;;;;;;;2.40;1.65;;;18.20;99.90;;;;;;5072000;28;20071;-54
2023/09/21 00:40:55;;;;;;;4.90;2.13;;;18.20;99.90;;;;;;5072161;28;20435;-54
2023/09/21 00:43:24;;;;;;;4.22;2.20;;;18.30;99.90;;;;;;5071805;28;20036;-55
2023/09/21 00:45:53;;;;;;;5.88;1.85;;;18.30;99.90;;;;;;5054286;28;20119;-55
2023/09/21 00:48:25;;;;;;;4.07;1.80;;;18.30;99.90;;;;;;5070909;28;20075;-53
2023/09/21 00:50:53;;;;;;;5.95;2.03;;;18.30;99.90;;;;;;5069088;28;20043;-55
2023/09/21 00:53:19;;;;;;;3.08;1.75;;;18.40;99.90;;;;;;5080815;28;20522;-54
2023/09/21 00:55:52;;;;;;;5.03;2.28;;;18.40;99.90;;;;;;5072357;28;20130;-55
2023/09/21 00:58:19;;;;;;;5.10;1.92;;;18.40;99.90;;;;;;5071933;28;20068;-54
2023/09/21 01:00:46;;;;;;;6.38;2.10;;;18.40;99.90;;;;;;5071873;28;20037;-55
2023/09/21 01:03:13;;;;;;;3.85;2.00;;;18.40;99.90;;;;;;5071946;28;20032;-54
2023/09/21 01:05:40;;;;;;;3.47;1.65;;;18.40;99.90;;;;;;5071566;28;20441;-53
2023/09/21 01:08:11;;;;;;;4.63;2.20;;;18.40;99.90;;;;;;5071760;28;20044;-55
2023/09/21 01:10:48;;;;;;;3.63;1.80;;;18.50;99.90;;;;;;5074672;28;20063;-54
2023/09/21 01:13:18;;;;;;;4.22;1.80;;;18.50;99.90;;;;;;5082492;28;20155;-54
2023/09/21 01:16:05;;;;;;;4.10;1.60;;;18.50;99.90;;;;;;5075118;28;20043;-54
2023/09/21 01:18:31;;;;;;;3.55;1.90;;;18.50;99.90;;;;;;5089415;28;20490;-53
2023/09/21 01:21:00;;;;;;;3.95;2.15;;;18.60;99.90;;;;;;5087551;28;20146;-53
2023/09/21 01:23:45;;;;;;;5.10;2.72;;;18.60;99.90;;;;;;5089533;28;20035;-53
2023/09/21 01:26:14;;;;;;;2.95;2.05;;;18.50;99.90;;;;;;5087851;28;20039;-54
2023/09/21 01:28:40;;;;;;;4.40;2.38;;;18.50;99.90;;;;;;5084330;28;20040;-54
2023/09/21 01:31:11;;;;;;;3.45;1.95;;;18.50;99.90;;;;;;5089378;28;20028;-54
2023/09/21 01:33:38;;;;;;;4.68;1.90;;;18.50;99.90;;;;;;5084976;28;20076;-55
2023/09/21 01:36:08;;;;;;;3.50;2.00;;;18.50;99.90;;;;;;5087897;28;20114;-52
2023/09/21 01:38:37;;;;;;;3.45;2.05;;;18.60;99.90;;;;;;5085685;28;20093;-53
2023/09/21 01:41:06;;;;;;;4.18;1.90;;;18.60;99.90;;;;;;5086369;28;20048;-55
2023/09/21 01:43:33;;;;;;;5.68;2.20;;;18.70;99.90;;;;;;5088298;28;20486;-55
2023/09/21 01:45:58;;;;;;;6.90;2.55;;;18.70;99.90;;;;;;5083803;28;20118;-54
2023/09/21 01:48:26;;;;;;;4.47;1.95;;;18.70;99.90;;;;;;5088159;28;20554;-54
2023/09/21 01:50:57;;;;;;;8.30;2.00;;;18.60;99.90;;;;;;5071866;28;20044;-52
2023/09/21 01:53:23;;;;;;;4.15;2.08;;;18.60;99.90;;;;;;5088996;28;20044;-54
2023/09/21 01:55:50;;;;;;;2.83;1.88;;;18.60;99.90;;;;;;5081935;28;20040;-52
2023/09/21 01:58:22;;;;;;;2.70;1.70;;;18.60;99.90;;;;;;5090551;28;20119;-55
2023/09/21 02:00:48;;;;;;;3.05;1.73;;;18.50;99.90;;;;;;5071358;28;20037;-55
2023/09/21 02:03:18;;;;;;;6.05;2.28;;;18.50;99.90;;;;;;5071080;28;20111;-54
2023/09/21 02:05:46;;;;;;;4.35;1.90;;;18.50;99.90;;;;;;5071116;28;20115;-54
2023/09/21 02:08:12;;;;;;;4.97;1.63;;;18.50;99.90;;;;;;5071454;28;20164;-54
2023/09/21 02:10:40;;;;;;;5.13;1.90;;;18.50;99.90;;;;;;5070980;28;20143;-55
2023/09/21 02:13:06;;;;;;;5.17;1.73;;;18.40;99.90;;;;;;5071613;28;20045;-54
2023/09/21 02:15:39;;;;;;;6.38;2.08;;;18.40;99.90;;;;;;5070783;28;20271;-54
2023/09/21 02:18:09;;;;;;;6.10;2.28;;;18.30;99.90;;;;;;5085869;28;20048;-52
2023/09/21 02:20:38;;;;;;;2.83;1.83;;;18.30;99.90;;;;;;5075821;28;20085;-55
2023/09/21 02:23:05;;;;;;;2.65;1.52;;;18.30;99.90;;;;;;5091233;28;20069;-55
2023/09/21 02:25:34;;;;;;;4.32;2.13;;;18.20;99.90;;;;;;5093254;28;20402;-55
2023/09/21 02:28:03;;;;;;;5.82;1.70;;;18.20;99.90;;;;;;5095297;28;20036;-51
2023/09/21 02:30:32;;;;;;;6.82;2.60;;;18.20;99.90;;;;;;5094951;28;20115;-53
2023/09/21 02:32:59;;;;;;;;;;;18.20;99.90;;;;;;5095311;28;20081;-53
2023/09/21 02:35:27;;;;;;;4.63;2.00;;;18.30;99.90;;;;;;5094676;28;20002;-52
2023/09/21 02:37:54;;;;;;;3.65;2.13;;;18.20;99.90;;;;;;5094893;28;20044;-53
2023/09/21 02:40:21;;;;;;;3.40;1.95;;;18.20;99.90;;;;;;5093451;28;20101;-52
2023/09/21 02:42:52;;;;;;;3.92;1.73;;;18.20;99.90;;;;;;5090825;28;20036;-53
2023/09/21 02:45:19;;;;;;;3.58;1.60;;;18.20;99.90;;;;;;5093720;28;20040;-53
2023/09/21 02:47:46;;;;;;;7.50;2.25;;;18.20;99.90;;;;;;5090786;28;20032;-53
2023/09/21 02:50:14;;;;;;;2.55;1.60;;;18.20;99.90;;;;;;5095079;28;20442;-54
2023/09/21 02:52:45;;;;;;;7.38;2.10;;;18.30;99.90;;;;;;5094918;28;20114;-54
2023/09/21 02:55:12;;;;;;;2.28;1.88;;;18.30;99.90;;;;;;5094518;28;20039;-55
2023/09/21 02:57:39;;;;;;;3.78;2.05;;;18.30;99.90;;;;;;5093319;28;20047;-53
2023/09/21 03:00:21;;;;;;;5.07;2.45;;;18.30;99.90;;;;;;5080655;28;20040;-55
2023/09/21 03:02:48;;;;;;;3.42;2.03;;;18.30;99.90;;;;;;5062382;28;20474;-55
2023/09/21 03:05:16;;;;;;;4.65;2.00;;;18.30;99.90;;;;;;5074191;28;20044;-52
2023/09/21 03:07:43;;;;;;;5.05;2.03;;;18.40;99.90;;;;;;5074301;28;20604;-54
2023/09/21 03:10:10;;;;;;;5.28;2.17;;;18.40;99.90;;;;;;5074207;28;20145;-53
2023/09/21 03:12:37;;;;;;;5.45;2.17;;;18.40;99.90;;;;;;5074115;28;20045;-53
2023/09/21 03:15:07;;;;;;;3.75;1.83;;;18.40;99.90;;;;;;5074474;28;20377;-53
2023/09/21 03:17:34;;;;;;;3.58;1.83;;;18.40;99.90;;;;;;5073799;28;20155;-53
2023/09/21 03:20:11;;;;;;;6.13;1.58;;;18.50;99.90;;;;;;5074000;28;20078;-55
2023/09/21 03:22:38;;;;;;;4.30;1.90;;;18.50;99.90;;;;;;5075768;28;20033;-53
2023/09/21 03:25:11;;;;;;;2.97;1.90;;;18.50;99.90;;;;;;5092842;28;20051;-52
2023/09/21 03:27:38;;;;;;;5.70;2.20;;;18.50;99.90;;;;;;5093997;28;20382;-55
2023/09/21 03:30:05;;;;;;;4.47;1.60;;;18.50;99.90;;;;;;5094044;28;20040;-55
2023/09/21 03:32:31;;;;;;;2.97;1.90;;;18.50;99.90;;;;;;5092847;28;20036;-53
2023/09/21 03:34:57;;;;;;;3.72;1.85;;;18.50;99.90;;;;;;5093578;28;20085;-54
2023/09/21 03:37:24;;;;;;;2.15;1.90;;;18.50;99.90;;;;;;5092468;28;20040;-55
2023/09/21 03:39:49;;;;;;;2.70;1.85;;;18.40;99.90;;;;;;5093540;28;20040;-54
2023/09/21 03:42:15;;;;;;;4.15;1.80;;;18.40;99.90;;;;;;5090714;28;20032;-55
2023/09/21 03:44:42;;;;;;;6.43;2.17;;;18.40;99.90;;;;;;5075773;28;20391;-53
2023/09/21 03:47:11;;;;;;;2.30;1.67;;;18.40;99.90;;;;;;5092397;28;20107;-54
2023/09/21 03:49:37;;;;;;;3.25;1.85;;;18.40;99.90;;;;;;5093508;28;20424;-53
2023/09/21 03:52:03;;;;;;;9.40;1.77;;;18.40;99.90;;;;;;5092588;28;20105;-51
2023/09/21 03:54:29;;;;;;;2.75;1.92;;;18.40;99.90;;;;;;5093194;28;20044;-55
2023/09/21 03:56:54;;;;;;;3.50;1.90;;;18.50;99.90;;;;;;5093356;28;20043;-55
2023/09/21 03:59:20;;;;;;;3.33;2.00;;;18.50;99.90;;;;;;5085448;28;20032;-53
2023/09/21 04:01:46;;;;;;;3.38;1.80;;;18.50;99.90;;;;;;5073253;28;20075;-52
2023/09/21 04:04:17;;;;;;;4.47;2.17;;;18.60;99.90;;;;;;5072838;28;20056;-55
2023/09/21 04:06:44;;;;;;;7.55;1.90;;;18.60;99.90;;;;;;5073062;28;20090;-55
2023/09/21 04:09:10;;;;;;;4.07;1.98;;;18.60;99.90;;;;;;5072671;28;20571;-53
2023/09/21 04:11:35;;;;;;;2.95;1.80;;;18.60;99.90;;;;;;5072755;28;20048;-53
2023/09/21 04:14:02;;;;;;;3.30;1.65;;;18.60;99.90;;;;;;5071370;28;20050;-52
2023/09/21 04:16:28;;;;;;;3.80;1.83;;;18.60;99.90;;;;;;5072702;28;20541;-53
2023/09/21 04:18:55;;;;;;;3.72;2.35;;;18.50;99.90;;;;;;5072603;28;20045;-52
2023/09/21 04:21:23;;;;;;;4.07;1.83;;;18.50;99.90;;;;;;5072700;28;20170;-55
2023/09/21 04:23:49;;;;;;;4.43;1.70;;;18.60;99.90;;;;;;5072465;28;20375;-54
2023/09/21 04:26:15;;;;;;;3.60;1.92;;;18.50;99.90;;;;;;5087563;28;20043;-55
2023/09/21 04:28:41;;;;;;;3.67;1.75;;;18.50;99.90;;;;;;5092924;28;20040;-54
2023/09/21 04:31:09;;;;;;;4.25;1.75;;;18.50;99.90;;;;;;5092769;28;20036;-55
2023/09/21 04:33:35;;;;;;;3.03;1.80;;;18.50;99.90;;;;;;5092554;28;20110;-53
2023/09/21 04:36:01;;;;;;;2.47;1.77;;;18.50;99.90;;;;;;5092714;28;20031;-54
2023/09/21 04:38:27;;;;;;;3.92;1.92;;;18.40;99.90;;;;;;5092679;28;20504;-53
2023/09/21 04:40:52;;;;;;;6.03;1.85;;;18.40;99.90;;;;;;5089842;28;20047;-54
2023/09/21 04:43:18;;;;;;;3.80;1.70;;;18.30;99.90;;;;;;5086636;28;20089;-54
2023/09/21 04:45:53;;;;;;;3.25;1.80;;;18.30;99.90;;;;;;5091440;28;20044;-52
2023/09/21 04:48:18;;;;;;;2.53;1.70;;;18.30;99.90;;;;;;5085560;28;20043;-52
2023/09/21 04:50:48;;;;;;;3.33;1.90;;;18.20;99.90;;;;;;5092084;28;20028;-54
2023/09/21 04:53:15;;;;;;;5.45;1.75;;;18.20;99.90;;;;;;5092396;28;20046;-53
2023/09/21 04:55:41;;;;;;;4.03;1.50;;;18.20;99.90;;;;;;5092296;28;20131;-53
2023/09/21 04:58:07;;;;;;;6.15;2.05;;;18.20;99.90;;;;;;5092353;28;20425;-52
2023/09/21 05:00:33;;;;;;;3.78;2.10;;;18.10;99.90;;;;;;5074386;28;20032;-53
2023/09/21 05:02:59;;;;;;;3.00;2.10;;;18.10;99.90;;;;;;5071917;28;20047;-53
2023/09/21 05:05:26;;;;;;;4.03;1.48;;;18.10;99.90;;;;;;5071646;28;20085;-54
2023/09/21 05:07:55;;;;;;;5.47;1.92;;;18.00;99.90;;;;;;5071969;28;20040;-55
2023/09/21 05:10:20;;;;;;;;;;;18.00;99.90;;;;;;5071943;28;20440;-53
2023/09/21 05:12:51;;;;;;;3.40;1.67;;;18.00;99.90;;;;;;5071697;28;19916;-54
2023/09/21 05:15:17;;;;;;;3.08;1.80;;;18.00;99.90;;;;;;5071851;28;20044;-53
2023/09/21 05:17:43;;;;;;;2.15;1.55;;;17.90;99.90;;;;;;5071489;28;20101;-54
2023/09/21 05:20:09;;;;;;;3.22;2.13;;;18.00;99.90;;;;;;5071697;28;20040;-55
2023/09/21 05:22:35;;;;;;;3.28;1.75;;;18.00;99.90;;;;;;5071527;28;20478;-52
2023/09/21 05:25:02;;;;;;;3.05;1.65;;;18.00;99.90;;;;;;5071420;28;20483;-55
2023/09/21 05:27:31;;;;;;;4.03;1.58;;;18.00;99.90;;;;;;5071510;28;20040;-53
2023/09/21 05:29:58;;;;;;;3.30;1.67;;;18.00;99.90;;;;;;5071663;28;20068;-55
2023/09/21 05:32:24;;;;;;;3.33;2.15;;;18.00;99.90;;;;;;5071440;28;20040;-53
2023/09/21 05:34:51;;;;;;;3.17;1.65;;;17.90;99.90;;;;;;5090443;28;20036;-55
2023/09/21 05:37:19;;;;;;;5.25;1.80;;;18.00;99.90;;;;;;5088495;28;20036;-52
2023/09/21 05:39:46;;;;;;;3.28;2.10;;;18.00;99.90;;;;;;5090203;28;20042;-54
2023/09/21 05:42:12;;;;;;;3.80;1.90;;;18.00;99.90;;;;;;5086585;28;20039;-54
2023/09/21 05:44:38;;;;;;;4.85;2.10;;;18.00;99.90;;;;;;5091328;28;20040;-55
2023/09/21 05:47:04;;;;;;;3.60;1.90;;;18.00;99.90;;;;;;5090299;28;20115;-53
2023/09/21 05:49:32;;;;;;;4.88;1.83;;;18.00;99.90;;;;;;5091376;28;20132;-56
2023/09/21 05:51:59;;;;;;;3.42;1.80;;;18.00;99.90;;;;;;5091559;28;20090;-54
2023/09/21 05:54:26;;;;;;;5.57;1.90;;;18.00;99.90;;;;;;5091567;28;20048;-54
2023/09/21 05:56:52;;;;;;;3.03;1.83;;;18.00;99.90;;;;;;5091391;28;20557;-53
2023/09/21 05:59:18;;;;;;;2.90;1.70;;;18.00;99.90;;;;;;5083932;28;20044;-54
2023/09/21 06:01:44;;;;;;;3.65;2.30;;;18.10;99.90;;;;;;5075444;28;20409;-53
2023/09/21 06:04:12;;;;;;;4.72;1.70;;;18.20;99.90;;;;;;5075313;28;20093;-54
2023/09/21 06:06:40;;;;;;;2.90;1.42;;;18.20;99.90;;;;;;5075487;28;20431;-55
2023/09/21 06:09:08;;;;;;;6.57;2.08;;;18.20;99.90;;;;;;5075198;28;20042;-53
2023/09/21 06:11:33;;;;;;;3.63;1.90;;;18.20;99.90;;;;;;5075086;28;20071;-52
2023/09/21 06:13:59;;;;;;;4.95;2.08;;;18.30;99.90;;;;;;5075480;28;20474;-54
2023/09/21 06:16:25;;;;;;;3.70;1.70;;;18.20;99.90;;;;;;5090840;28;20036;-55
2023/09/21 06:18:50;;;;;;;8.18;2.10;;;18.30;99.90;;;;;;5094282;28;20157;-56
2023/09/21 06:21:17;;;;;;;3.92;1.70;;;18.30;99.90;;;;;;5095287;28;20051;-55
2023/09/21 06:23:44;;;;;;;6.70;2.70;;;18.20;99.90;;;;;;5095257;28;20040;-54
2023/09/21 06:26:16;;;;;;;3.60;2.10;;;18.20;99.90;;;;;;5095099;28;20494;-53
2023/09/21 06:28:50;;;;;;;3.58;2.20;;;18.10;99.90;;;;;;5095155;28;20032;-54
2023/09/21 06:31:18;;;;;;;6.20;2.00;;;18.10;99.90;;;;;;5095109;28;20389;-53
2023/09/21 06:33:43;;;;;;;3.20;1.92;;;18.20;99.90;;;;;;5095160;28;20044;-53
2023/09/21 06:36:15;;;;;;;3.40;1.85;;;18.20;99.90;;;;;;5094750;28;20054;-51
2023/09/21 06:38:43;;;;;;;4.40;2.20;;;18.10;99.90;;;;;;5094819;28;20493;-56
2023/09/21 06:41:12;;;;;;;5.32;2.15;;;18.00;99.90;;;;;;5094742;28;20042;-50
2023/09/21 06:43:40;;;;;;;;;;;18.10;99.90;;;;;;5095619;28;20097;-52
2023/09/21 06:46:06;;;;;;;4.65;2.15;;;18.10;99.90;;;;;;5094923;28;19920;-53
2023/09/21 06:48:32;;;;;;;6.55;2.10;;;18.10;99.90;;;;;;5094865;28;20036;-55
2023/09/21 06:50:57;;;;;;;4.18;1.88;;;18.10;99.90;;;;;;5094820;28;20089;-54
2023/09/21 06:53:24;;;;;;;5.13;2.05;;;18.10;99.90;;;;;;5094542;28;20036;-53
2023/09/21 06:55:50;;;;;;;4.32;1.88;;;18.10;99.90;;;;;;5094379;28;20492;-52
2023/09/21 06:58:15;;;;;;;5.40;2.38;;;18.10;99.90;;;;;;5094442;28;20028;-52
2023/09/21 07:00:42;;;;;;;4.15;2.08;;;18.10;99.90;;;;;;5075438;28;20042;-49
2023/09/21 07:03:09;;;;;;;3.90;2.13;;;18.00;99.90;;;;;;5074199;28;20044;-55
2023/09/21 07:05:34;;;;;;;4.93;2.60;;;18.00;99.90;;;;;;5074081;28;20032;-53
2023/09/21 07:08:00;;;;;;;5.95;2.22;;;17.90;99.90;;;;;;5074153;28;20086;-56
2023/09/21 07:10:26;;;;;;;5.57;2.67;;;17.80;99.90;;;;;;5073459;28;20376;-53
2023/09/21 07:12:53;;;;;;;4.03;2.00;;;17.80;99.90;;;;;;5074120;28;20056;-55
2023/09/21 07:15:19;;;;;;;7.97;2.67;;;17.70;99.90;;;;;;5074120;28;20074;-55
2023/09/21 07:17:45;;;;;;;5.90;2.30;;;17.70;99.90;;;;;;5090529;28;20036;-54
2023/09/21 07:20:12;;;;;;;5.40;2.38;;;17.70;99.90;;;;;;5093974;28;20482;-54
2023/09/21 07:22:37;;;;;;;4.60;2.00;;;17.60;99.90;;;;;;5094030;28;20040;-50
2023/09/21 07:25:03;;;;;;;3.30;2.13;;;17.60;99.90;;;;;;5093836;28;20391;-52
2023/09/21 07:27:29;;;;;;;5.63;2.20;;;17.50;99.90;;;;;;5094106;28;20032;-55
2023/09/21 07:29:56;;;;;;;4.85;2.38;;;17.50;99.90;;;;;;5093943;28;20032;-53
2023/09/21 07:32:28;;;;;;;4.80;2.25;;;17.50;99.90;;;;;;5094019;28;20111;-53
2023/09/21 07:34:54;;;;;;;4.03;2.20;;;17.50;99.90;;;;;;5093758;28;20043;-54
2023/09/21 07:37:20;;;;;;;4.97;2.03;;;17.60;99.90;;;;;;5093609;28;20039;-53
2023/09/21 07:39:45;;;;;;;5.60;2.45;;;17.50;99.90;;;;;;5093594;28;20036;-54
2023/09/21 07:42:11;;;;;;;6.00;1.92;;;17.50;99.90;;;;;;5093485;28;20097;-55
2023/09/21 07:44:37;;;;;;;6.88;2.55;;;17.50;99.90;;;;;;5093538;28;20040;-55
2023/09/21 07:47:03;;;;;;;7.28;2.47;;;17.50;99.90;;;;;;5093545;28;20537;-54
2023/09/21 07:49:28;;;;;;;4.18;2.28;;;17.40;99.90;;;;;;5092472;28;20050;-54
2023/09/21 07:51:55;;;;;;;5.88;2.13;;;17.40;99.90;;;;;;5093571;28;20040;-55
2023/09/21 07:54:22;;;;;;;5.03;2.40;;;17.40;99.90;;;;;;5093844;28;20591;-55
2023/09/21 07:56:48;;;;;;;3.17;2.28;;;17.50;99.90;;;;;;5093670;28;20576;-54
2023/09/21 07:59:14;;;;;;;4.88;2.53;;;17.50;99.90;;;;;;5086601;28;20071;-55
2023/09/21 08:01:40;;;;;;;4.97;2.22;;;17.40;99.90;;;;;;5072949;28;20111;-53
2023/09/21 08:04:07;;;;;;;6.28;2.20;;;17.40;99.90;;;;;;5072888;28;20112;-53
2023/09/21 08:06:33;;;;;;;4.32;2.83;;;17.40;99.90;;;;;;5080365;28;20028;-55
2023/09/21 08:08:58;;;;;;;5.10;2.50;;;17.40;99.90;;;;;;5093299;28;20048;-55
2023/09/21 08:11:25;;;;;;;4.95;2.40;;;17.40;99.90;;;;;;5092851;28;20056;-54
2023/09/21 08:13:50;;;;;;;8.10;3.10;;;17.30;99.90;;;;;;5093238;28;20123;-54
2023/09/21 08:16:16;;;;;;;6.68;2.75;;;17.30;99.90;;;;;;5092926;28;20107;-52
2023/09/21 08:18:42;;;;;;;4.60;2.50;;;17.40;99.90;;;;;;5093141;28;20393;-55
2023/09/21 08:21:09;;;;;;;6.28;2.70;;;17.30;99.90;;;;;;5092788;28;20039;-53
2023/09/21 08:23:36;;;;;;;7.15;2.65;;;17.30;99.90;;;;;;5092349;28;20032;-53
2023/09/21 08:26:02;;;;;;;3.88;2.60;;;17.20;99.90;;;;;;5092077;28;20044;-53
2023/09/21 08:28:29;;;;;;;6.82;3.60;;;17.30;99.90;;;;;;5092771;28;20036;-56
2023/09/21 08:30:56;;;;;;;4.85;2.75;;;17.30;99.90;;;;;;5092864;28;20440;-53
2023/09/21 08:33:23;;;;;;;7.95;3.67;;;17.30;99.90;;;;;;5091253;28;20040;-52
2023/09/21 08:35:48;;;;;;;8.05;3.05;;;17.20;99.90;;;;;;5092584;28;20502;-50
2023/09/21 08:38:17;;;;;;;4.55;3.17;;;17.20;99.90;;;;;;5092910;28;20036;-52
2023/09/21 08:40:44;;;;;;;8.15;3.13;;;17.20;99.90;;;;;;5092747;28;20087;-51
2023/09/21 08:43:24;;;;;;;7.75;3.20;;;17.30;99.90;;;;;;5092514;28;20093;-54
2023/09/21 08:45:51;;;;;;;5.07;3.00;;;17.20;99.90;;;;;;5087821;28;20075;-54
2023/09/21 08:48:22;;;;;;;5.40;3.08;;;17.20;99.90;;;;;;5092481;28;20098;-52
2023/09/21 08:50:51;;;;;;;6.28;3.38;;;17.20;99.90;;;;;;5092492;28;20379;-54
2023/09/21 08:53:22;;;;;;;5.07;3.10;;;17.20;99.90;;;;;;5092556;28;20032;-54
2023/09/21 08:55:50;;;;;;;6.15;3.10;;;17.10;99.90;;;;;;5092094;28;20055;-54
2023/09/21 08:58:27;;;;;;;7.03;3.38;;;17.10;99.90;;;;;;5092205;28;20502;-54
2023/09/21 09:00:55;;;;;;;5.65;4.18;;;17.10;99.90;;;;;;5058660;28;20045;-55
2023/09/21 09:03:27;;;;;;;6.87;2.97;;;17.10;99.90;;;;;;5072161;28;20048;-55
2023/09/21 09:06:00;;;;;;;6.20;3.53;;;17.10;99.90;;;;;;5071742;28;20036;-54
2023/09/21 09:08:26;;;;;;;4.22;3.00;;;17.10;99.90;;;;;;5071953;28;20060;-52
2023/09/21 09:10:53;;;;;;;2.97;1.77;;;17.00;99.90;;;;;;5080920;28;20595;-54
2023/09/21 09:13:31;;;;;;;3.15;1.20;;;16.90;99.90;;;;;;5091809;28;20048;-55
2023/09/21 09:15:58;;;;;;;2.08;1.00;;;16.80;99.90;;;;;;5092148;28;20036;-54
2023/09/21 09:18:24;;;;;;;2.45;1.30;;;16.80;99.90;;;;;;5091772;28;20044;-56
2023/09/21 09:20:50;;;;;;;2.03;1.05;;;16.70;99.90;;;;;;5091835;28;20036;-54
2023/09/21 09:23:18;;;;;;;2.72;0.90;;;16.60;99.90;;;;;;5091890;28;20080;-55
2023/09/21 09:25:43;;;;;;;1.58;0.80;;;16.60;99.90;;;;;;5091680;28;20089;-54
2023/09/21 09:28:09;;;;;;;1.58;0.75;;;16.60;99.90;;;;;;5092290;28;20123;-55
2023/09/21 09:30:36;;;;;;;3.85;1.10;;;16.50;99.90;;;;;;5092254;28;20577;-56
2023/09/21 09:33:03;;;;;;;4.28;1.17;;;16.40;99.90;;;;;;5092051;28;20364;-55
2023/09/21 09:35:32;;;;;;;2.85;1.30;;;16.40;99.90;;;;;;5090796;28;20044;-54
2023/09/21 09:37:58;;;;;;;1.55;1.00;;;16.40;99.90;;;;;;5091940;28;20052;-55
2023/09/21 09:40:25;;;;;;;2.50;1.10;;;16.40;99.90;;;;;;5090705;28;20051;-55
2023/09/21 09:42:52;;;;;;;1.98;0.85;;;16.40;99.90;;;;;;5092098;28;20055;-56
2023/09/21 09:45:25;;;;;;;4.38;1.50;;;16.40;99.90;;;;;;5091980;28;20417;-54
2023/09/21 09:47:56;;;;;;;2.53;1.25;;;16.30;99.90;;;;;;5091631;28;20036;-53
2023/09/21 09:50:26;;;;;;;5.35;1.30;;;16.30;99.90;;;;;;5091466;28;20375;-54
2023/09/21 09:53:10;;;;;;;5.18;1.17;;;16.20;99.90;;;;;;5091104;28;20062;-55
2023/09/21 09:55:37;;;;;;;2.45;1.10;;;16.20;99.90;;;;;;5091660;28;20390;-56
2023/09/21 09:58:03;;;;;;;1.92;1.30;;;16.20;99.90;;;;;;5091363;28;20124;-55
2023/09/21 10:00:35;;;;;;;3.60;1.20;;;16.10;99.90;;;;;;5074085;28;20041;-53
2023/09/21 10:03:03;;;;;;;3.05;1.35;;;16.10;99.90;;;;;;5071240;28;20051;-52
2023/09/21 10:05:30;;;;;;;4.50;1.38;;;16.10;99.90;;;;;;5071187;28;20037;-54
2023/09/21 10:08:08;;;;;;;2.55;1.23;;;16.10;99.90;;;;;;5070975;28;20523;-56
2023/09/21 10:10:44;;;;;;;1.75;1.20;;;16.10;99.90;;;;;;5070971;28;20036;-54
2023/09/21 10:13:10;;;;;;;2.65;1.23;;;16.10;99.90;;;;;;5071180;28;20048;-52
2023/09/21 10:15:36;;;;;;;3.97;0.95;;;16.10;99.90;;;;;;5070389;28;20086;-56
2023/09/21 10:18:02;;;;;;;2.70;1.30;;;16.00;99.90;;;;;;5071294;28;20555;-53
2023/09/21 10:20:32;;;;;;;1.60;1.02;;;16.00;99.90;;;;;;5071067;28;20041;-55
2023/09/21 10:23:01;;;;;;;1.58;1.05;;;16.10;99.90;;;;;;5056146;28;20123;-54
2023/09/21 10:25:45;;;;;;;1.77;1.13;;;16.00;99.90;;;;;;5070957;28;20182;-54
2023/09/21 10:28:27;;;;;;;1.35;0.98;;;16.00;99.90;;;;;;5058136;28;20104;-55
2023/09/21 10:30:53;;;;;;;1.52;1.10;;;16.00;99.90;;;;;;5071250;28;20045;-55
2023/09/21 10:33:19;;;;;;;1.75;1.10;;;16.00;99.90;;;;;;5091132;28;20541;-55
2023/09/21 10:35:45;;;;;;;1.05;0.80;;;16.00;99.90;;;;;;5081129;28;20110;-54
2023/09/21 10:38:15;;;;;;;1.95;1.10;;;16.00;99.90;;;;;;5091089;28;20071;-55
2023/09/21 10:40:41;;;;;;;3.13;1.00;;;16.00;99.90;;;;;;5080504;28;20055;-52
2023/09/21 10:43:39;;;;;;;1.40;0.93;;;16.00;99.90;;;;;;5091290;28;20036;-55
2023/09/21 10:46:21;;;;;;;2.42;1.30;;;16.00;99.90;;;;;;5059337;28;20080;-54
2023/09/21 10:49:05;;;;;;;2.63;1.10;;;16.00;99.90;;;;;;5038237;28;20395;-54
2023/09/21 10:51:32;;;;;;;2.40;1.00;;;15.90;99.90;;;;;;5043995;28;20091;-55
2023/09/21 10:53:59;;;;;;;1.02;0.60;;;15.90;99.90;;;;;;5071978;28;20041;-55
2023/09/21 10:56:27;;;;;;;1.20;0.90;;;16.00;99.90;;;;;;5060895;28;20461;-54
2023/09/21 10:58:54;;;;;;;1.67;0.77;;;16.00;99.90;;;;;;5050490;28;20514;-54
2023/09/21 11:01:21;;;;;;;2.58;1.00;;;16.00;99.90;;;;;;5051991;28;20071;-54
2023/09/21 11:03:50;;;;;;;2.20;0.98;;;16.00;99.90;;;;;;5068651;28;20469;-55
2023/09/21 11:06:20;;;;;;;2.05;0.70;;;16.10;99.90;;;;;;5051956;28;20029;-54
2023/09/21 11:08:49;;;;;;;1.77;1.00;;;16.10;99.90;;;;;;5051711;28;20128;-53
2023/09/21 11:11:19;;;;;;;2.17;1.10;;;16.20;99.90;;;;;;5051664;28;20118;-55
2023/09/21 11:13:50;;;;;;;0.70;0.70;;;16.20;99.90;;;;;;5051810;28;20044;-55
2023/09/21 11:16:16;;;;;;;1.55;0.80;;;16.20;99.90;;;;;;5051700;28;20052;-55
2023/09/21 11:18:42;;;;;;;1.67;0.90;;;16.20;99.90;;;;;;5051756;28;20037;-55
2023/09/21 11:21:11;;;;;;;3.35;0.80;;;16.10;99.90;;;;;;5057797;28;20047;-54
2023/09/21 11:23:40;;;;;;;1.17;0.98;;;16.20;99.90;;;;;;5073830;28;20094;-54
2023/09/21 11:26:11;;;;;;;3.00;0.80;;;16.10;99.90;;;;;;5074033;28;20467;-55
2023/09/21 11:28:39;;;;;;;1.00;0.90;;;16.10;99.90;;;;;;5074226;28;20331;-51
2023/09/21 11:31:05;;;;;;;;;;;16.20;99.90;;;;;;5074285;28;20100;-50
2023/09/21 11:33:35;;;;;;;1.55;0.70;;;16.30;99.90;;;;;;5073822;28;20032;-53
2023/09/21 11:36:04;;;;;;;2.90;0.90;;;16.20;99.90;;;;;;5073372;28;20036;-56
2023/09/21 11:38:33;;;;;;;5.65;0.70;;;16.20;99.90;;;;;;5073566;28;20513;-53
2023/09/21 11:40:59;;;;;;;1.35;0.70;;;16.20;99.90;;;;;;5073350;28;20040;-54
2023/09/21 11:43:25;;;;;;;1.33;0.90;;;16.20;99.90;;;;;;5073423;28;20040;-54
2023/09/21 11:45:52;;;;;;;0.80;0.63;;;16.20;99.90;;;;;;5071951;28;20055;-55
2023/09/21 11:48:20;;;;;;;1.17;0.68;;;16.20;99.90;;;;;;5073224;28;20051;-55
2023/09/21 11:50:46;;;;;;;2.25;0.90;;;16.30;99.90;;;;;;5073445;28;20108;-54
2023/09/21 11:53:12;;;;;;;1.05;0.70;;;16.20;99.90;;;;;;5073195;28;20041;-55
2023/09/21 11:55:38;;;;;;;0.80;0.80;;;16.30;99.90;;;;;;5073329;28;20040;-53
2023/09/21 11:58:13;;;;;;;1.45;0.75;;;16.30;99.90;;;;;;5072035;28;20111;-53
2023/09/21 12:00:52;;;;;;;1.58;1.25;;;16.30;99.90;;;;;;5073153;28;20064;-55
2023/09/21 12:03:20;;;;;;;3.50;1.50;;;16.30;99.90;;;;;;5073170;28;20044;-55
2023/09/21 12:05:46;;;;;;;4.07;1.17;;;16.30;99.90;;;;;;5072943;28;20036;-53
2023/09/21 12:08:14;;;;;;;1.45;0.95;;;16.30;99.90;;;;;;5072954;28;20036;-52
2023/09/21 12:10:47;;;;;;;2.60;1.00;;;16.30;99.90;;;;;;5072727;28;20108;-54
2023/09/21 12:13:16;;;;;;;3.83;0.90;;;16.30;99.90;;;;;;5072788;28;20045;-56
2023/09/21 12:15:42;;;;;;;1.75;1.10;;;16.30;99.90;;;;;;5072777;28;20119;-55
2023/09/21 12:18:10;;;;;;;1.90;1.02;;;16.30;99.90;;;;;;5072820;28;20124;-55
2023/09/21 12:20:36;;;;;;;1.42;1.08;;;16.20;99.90;;;;;;5072556;28;20044;-54
2023/09/21 12:23:05;;;;;;;2.22;1.20;;;16.20;99.90;;;;;;5072994;28;20075;-55
2023/09/21 12:25:31;;;;;;;;;;;16.30;99.90;;;;;;5073144;28;20040;-54
2023/09/21 12:27:57;;;;;;;2.58;1.10;;;16.20;99.90;;;;;;5072633;28;19916;-55
2023/09/21 12:30:23;;;;;;;2.42;1.05;;;16.30;99.90;;;;;;5072445;28;20062;-54
2023/09/21 12:32:49;;;;;;;1.92;1.08;;;16.30;99.90;;;;;;5072339;28;20032;-56
2023/09/21 12:35:17;;;;;;;2.42;1.05;;;16.30;99.90;;;;;;5072225;28;20036;-56
2023/09/21 12:37:44;;;;;;;2.58;1.15;;;16.20;99.90;;;;;;5072540;28;20399;-51
2023/09/21 12:40:14;;;;;;;1.25;1.10;;;16.40;99.90;;;;;;5072327;28;20097;-54
2023/09/21 12:42:41;;;;;;;1.13;1.02;;;16.30;99.90;;;;;;5072233;28;20112;-53
2023/09/21 12:45:09;;;;;;;1.85;1.38;;;16.30;99.90;;;;;;5072183;28;20037;-53
2023/09/21 12:47:35;;;;;;;1.83;1.23;;;16.40;99.90;;;;;;5072220;28;20059;-52
2023/09/21 12:50:00;;;;;;;1.90;1.27;;;16.40;99.90;;;;;;5071962;28;20036;-54
2023/09/21 12:52:29;;;;;;;1.30;1.20;;;16.40;99.90;;;;;;5071960;28;20045;-55